Time;durP1;ratioP1;P1;durP2;ratioP2;P2;SDS_P1;SDS_P2;PMS_P1;PMS_P2;Temp;Humidity;BMP_temperature;BMP_pressure;BME280_temperature;BME280_humidity;BME280_pressure;Samples;Min_cycle;Max_cycle;Signal;HPM_P1;HPM_P2
2022/09/08 00:02:03;;;;;;;1.20;1.10;;;21.60;57.10;;;;;;5015645;28;20018;-75
2022/09/08 00:04:29;;;;;;;5.38;1.38;;;21.60;57.30;;;;;;4951176;28;20041;-75
2022/09/08 00:06:54;;;;;;;2.80;1.27;;;21.50;57.30;;;;;;4993092;28;20030;-75
2022/09/08 00:09:20;;;;;;;3.30;1.85;;;21.50;57.30;;;;;;4981997;28;20043;-75
2022/09/08 00:11:45;;;;;;;1.98;1.40;;;21.50;57.30;;;;;;4974808;28;20037;-75
2022/09/08 00:14:11;;;;;;;1.38;1.23;;;21.50;57.50;;;;;;4976279;28;20048;-75
2022/09/08 00:16:39;;;;;;;4.72;1.40;;;21.50;57.60;;;;;;4978797;28;20113;-74
2022/09/08 00:19:04;;;;;;;2.85;1.38;;;21.40;57.80;;;;;;4982717;28;20041;-75
2022/09/08 00:21:30;;;;;;;6.55;1.38;;;21.50;57.80;;;;;;5013745;28;20038;-74
2022/09/08 00:23:56;;;;;;;1.92;1.10;;;21.40;57.90;;;;;;4984160;28;20031;-74
2022/09/08 00:26:21;;;;;;;2.35;1.20;;;21.40;57.90;;;;;;4992878;28;20110;-74
2022/09/08 00:28:48;;;;;;;1.50;1.40;;;21.40;58.00;;;;;;5011577;28;20092;-76
2022/09/08 00:31:13;;;;;;;5.53;1.45;;;21.40;58.00;;;;;;4985924;28;20538;-75
2022/09/08 00:33:39;;;;;;;3.47;1.50;;;21.40;58.20;;;;;;4997402;28;20038;-74
2022/09/08 00:36:06;;;;;;;2.35;1.50;;;21.30;58.20;;;;;;5019796;28;20048;-75
2022/09/08 00:38:31;;;;;;;7.10;1.40;;;21.30;58.30;;;;;;4985657;28;20041;-75
2022/09/08 00:40:57;;;;;;;3.45;1.58;;;21.30;58.50;;;;;;4975033;28;20030;-75
2022/09/08 00:43:36;;;;;;;3.88;1.50;;;21.20;58.60;;;;;;5021493;28;20049;-76
2022/09/08 00:46:26;;;;;;;2.42;1.20;;;21.20;59.10;;;;;;4999935;28;20038;-76
2022/09/08 00:49:11;;;;;;;2.93;1.50;;;21.10;59.30;;;;;;5004697;28;20030;-76
2022/09/08 00:51:41;;;;;;;3.63;1.70;;;21.10;59.60;;;;;;4985638;28;20273;-75
2022/09/08 00:54:08;;;;;;;3.05;1.60;;;21.00;59.30;;;;;;5004451;28;20272;-75
2022/09/08 00:56:33;;;;;;;4.47;1.77;;;21.00;59.40;;;;;;5000442;28;20057;-74
2022/09/08 00:59:00;;;;;;;1.90;1.33;;;21.00;59.50;;;;;;5003665;28;20045;-75
2022/09/08 01:01:30;;;;;;;2.97;1.75;;;21.00;59.60;;;;;;4990208;28;20034;-75
2022/09/08 01:03:56;;;;;;;3.03;1.58;;;21.00;59.70;;;;;;5008938;28;20045;-74
2022/09/08 01:14:56;;;;;;;2.40;1.42;;;20.90;59.90;;;;;;4995274;28;20056;-75
2022/09/08 01:17:27;;;;;;;3.00;1.50;;;21.00;60.10;;;;;;4989363;28;20114;-75
2022/09/08 01:19:53;;;;;;;2.20;1.57;;;20.90;60.20;;;;;;4974146;28;20030;-75
2022/09/08 01:22:37;;;;;;;2.65;1.70;;;20.90;60.20;;;;;;4985156;28;20281;-75
2022/09/08 01:25:12;;;;;;;1.58;1.45;;;20.90;61.00;;;;;;5016380;28;20120;-75
2022/09/08 01:27:38;;;;;;;1.95;1.63;;;20.90;60.50;;;;;;5007067;28;20038;-74
2022/09/08 01:30:08;;;;;;;2.75;1.75;;;20.90;61.10;;;;;;4989725;28;20042;-76
2022/09/08 01:32:38;;;;;;;2.63;1.50;;;20.90;60.80;;;;;;4989935;28;20042;-75
2022/09/08 01:35:04;;;;;;;3.40;1.45;;;20.80;61.20;;;;;;4990893;28;20105;-74
2022/09/08 01:37:30;;;;;;;1.48;1.35;;;20.90;61.10;;;;;;4990627;28;20030;-75
2022/09/08 01:39:57;;;;;;;3.35;1.60;;;20.90;61.20;;;;;;4976710;28;20068;-74
2022/09/08 01:42:23;;;;;;;4.13;1.55;;;20.80;61.50;;;;;;4991334;28;20555;-74
2022/09/08 01:44:48;;;;;;;2.20;1.67;;;20.70;61.60;;;;;;4964343;28;20041;-74
2022/09/08 01:47:14;;;;;;;1.65;1.30;;;20.70;62.10;;;;;;4968831;28;20033;-73
2022/09/08 01:49:39;;;;;;;3.42;1.40;;;20.60;62.50;;;;;;5002888;28;20135;-74
2022/09/08 01:52:05;;;;;;;3.65;1.40;;;20.60;62.80;;;;;;4989557;28;20037;-73
2022/09/08 01:54:30;;;;;;;5.85;1.55;;;20.50;63.10;;;;;;4967355;28;20176;-73
2022/09/08 01:56:56;;;;;;;5.72;1.80;;;20.50;63.10;;;;;;4979592;28;20041;-74
2022/09/08 01:59:22;;;;;;;9.10;2.30;;;20.50;63.50;;;;;;4969360;28;20030;-74
2022/09/08 02:01:48;;;;;;;8.00;2.22;;;20.40;63.70;;;;;;4952291;28;20038;-73
2022/09/08 02:04:13;;;;;;;7.50;1.90;;;20.40;63.90;;;;;;4983117;28;20116;-75
2022/09/08 02:06:39;;;;;;;3.10;1.60;;;20.40;64.20;;;;;;4981436;28;20063;-73
2022/09/08 02:09:05;;;;;;;2.70;1.10;;;20.40;64.50;;;;;;4984967;28;20037;-74
2022/09/08 02:11:31;;;;;;;4.10;1.80;;;20.40;64.60;;;;;;4985830;28;20245;-74
2022/09/08 02:13:57;;;;;;;3.25;1.30;;;20.40;64.80;;;;;;4968792;28;20034;-74
2022/09/08 02:16:23;;;;;;;3.13;1.58;;;20.40;65.10;;;;;;4952330;28;20088;-75
2022/09/08 02:18:48;;;;;;;3.80;1.67;;;20.40;65.30;;;;;;4970318;28;20030;-74
2022/09/08 02:21:16;;;;;;;4.45;2.03;;;20.40;65.40;;;;;;4983675;28;20045;-73
2022/09/08 02:23:43;;;;;;;3.47;1.30;;;20.40;65.70;;;;;;4965251;28;20107;-73
2022/09/08 02:26:16;;;;;;;2.50;1.50;;;20.40;65.80;;;;;;4984268;28;20069;-74
2022/09/08 02:28:42;;;;;;;3.42;1.50;;;20.30;66.20;;;;;;4967536;28;20111;-73
2022/09/08 02:31:09;;;;;;;3.60;1.65;;;20.40;66.10;;;;;;4983069;28;20494;-73
2022/09/08 02:33:35;;;;;;;3.95;1.92;;;20.40;66.10;;;;;;4981981;28;20045;-73
2022/09/08 02:36:01;;;;;;;4.40;1.75;;;20.40;66.20;;;;;;4963862;28;20402;-74
2022/09/08 02:38:27;;;;;;;2.10;1.60;;;20.30;66.40;;;;;;4982281;28;20087;-72
2022/09/08 02:40:52;;;;;;;3.05;1.50;;;20.30;66.70;;;;;;4951565;28;20042;-73
2022/09/08 02:43:18;;;;;;;3.88;1.50;;;20.30;66.80;;;;;;4947950;28;20034;-72
2022/09/08 02:45:44;;;;;;;4.18;1.70;;;20.30;67.00;;;;;;4965584;28;20888;-73
2022/09/08 02:48:10;;;;;;;4.72;1.55;;;20.30;67.20;;;;;;4949276;28;20042;-73
2022/09/08 02:50:35;;;;;;;4.15;1.60;;;20.30;67.20;;;;;;4964719;28;20048;-74
2022/09/08 02:53:01;;;;;;;3.15;1.42;;;20.30;67.40;;;;;;4968706;28;20621;-75
2022/09/08 02:55:27;;;;;;;3.17;1.30;;;20.30;67.40;;;;;;4998168;28;20067;-73
2022/09/08 02:57:52;;;;;;;1.85;1.25;;;20.20;67.50;;;;;;4967460;28;20561;-73
2022/09/08 03:00:19;;;;;;;1.58;1.25;;;20.20;67.60;;;;;;4965680;28;20044;-73
2022/09/08 03:02:44;;;;;;;3.03;1.58;;;20.20;67.70;;;;;;4967100;28;20042;-73
2022/09/08 03:05:10;;;;;;;2.17;1.40;;;20.20;67.60;;;;;;4983953;28;20096;-73
2022/09/08 03:07:36;;;;;;;5.72;1.50;;;20.20;67.70;;;;;;4966998;28;20398;-74
2022/09/08 03:10:06;;;;;;;2.53;1.48;;;20.20;68.00;;;;;;4956508;28;20828;-73
2022/09/08 03:12:32;;;;;;;2.40;1.52;;;20.20;68.10;;;;;;4965360;28;20041;-74
2022/09/08 03:14:58;;;;;;;6.40;1.40;;;20.20;68.10;;;;;;4967837;28;20040;-74
2022/09/08 03:17:24;;;;;;;2.63;1.30;;;20.10;68.00;;;;;;4967699;28;20046;-73
2022/09/08 03:19:50;;;;;;;2.10;1.10;;;20.10;68.10;;;;;;4979956;28;20034;-75
2022/09/08 03:22:17;;;;;;;4.63;1.90;;;20.10;68.30;;;;;;4982479;28;20030;-74
2022/09/08 03:24:43;;;;;;;2.15;1.25;;;20.10;68.30;;;;;;4980850;28;20041;-74
2022/09/08 03:27:09;;;;;;;1.65;1.00;;;20.10;68.30;;;;;;4949987;28;20299;-74
2022/09/08 03:29:34;;;;;;;1.67;1.17;;;20.10;68.30;;;;;;4980814;28;20621;-74
2022/09/08 03:32:00;;;;;;;1.38;1.25;;;20.00;68.40;;;;;;4964874;28;20120;-74
2022/09/08 03:34:26;;;;;;;2.70;1.35;;;20.00;68.50;;;;;;4980359;28;20095;-75
2022/09/08 03:36:52;;;;;;;1.33;1.00;;;20.00;68.50;;;;;;4985486;28;20033;-73
2022/09/08 03:39:17;;;;;;;1.95;1.20;;;20.00;68.50;;;;;;4959594;28;20038;-73
2022/09/08 03:41:43;;;;;;;3.25;1.20;;;19.90;68.60;;;;;;4984853;28;20037;-74
2022/09/08 03:44:09;;;;;;;2.40;1.05;;;20.00;68.70;;;;;;4999662;28;20041;-74
2022/09/08 03:46:34;;;;;;;1.80;0.90;;;19.90;68.70;;;;;;4951648;28;20395;-74
2022/09/08 03:49:00;;;;;;;2.95;1.20;;;19.90;68.80;;;;;;4980549;28;20730;-74
2022/09/08 03:51:26;;;;;;;2.28;1.20;;;19.90;68.80;;;;;;4964114;28;20053;-75
2022/09/08 03:53:52;;;;;;;1.20;0.95;;;19.90;68.90;;;;;;4969527;28;20114;-74
2022/09/08 03:56:18;;;;;;;2.60;1.35;;;19.90;68.90;;;;;;4954013;28;20042;-75
2022/09/08 03:58:44;;;;;;;3.65;1.33;;;19.90;69.00;;;;;;4959793;28;20120;-73
2022/09/08 04:01:10;;;;;;;2.33;1.45;;;19.90;69.10;;;;;;4948790;28;20034;-74
2022/09/08 04:03:36;;;;;;;2.38;1.23;;;19.90;69.20;;;;;;4940567;28;20045;-74
2022/09/08 04:06:02;;;;;;;4.78;1.30;;;19.90;69.20;;;;;;4935102;28;20057;-75
2022/09/08 04:08:27;;;;;;;2.42;1.40;;;19.80;69.30;;;;;;4991744;28;20049;-74
2022/09/08 04:10:53;;;;;;;1.90;1.60;;;19.80;69.40;;;;;;4974431;28;20285;-74
2022/09/08 04:13:19;;;;;;;5.80;1.73;;;19.80;69.50;;;;;;4966440;28;20084;-74
2022/09/08 04:15:44;;;;;;;4.90;1.58;;;19.80;69.80;;;;;;4968929;28;20204;-73
2022/09/08 04:18:10;;;;;;;3.40;1.60;;;19.80;69.90;;;;;;4983753;28;20666;-74
2022/09/08 04:20:38;;;;;;;2.72;1.75;;;19.80;70.00;;;;;;4952027;28;20045;-75
2022/09/08 04:23:04;;;;;;;1.80;1.52;;;19.70;70.10;;;;;;4987611;28;20033;-74
2022/09/08 04:25:29;;;;;;;3.78;1.60;;;19.70;70.10;;;;;;4953949;28;20145;-73
2022/09/08 04:27:55;;;;;;;1.73;1.20;;;19.70;70.30;;;;;;4984176;28;20052;-74
2022/09/08 04:30:21;;;;;;;3.38;1.30;;;19.70;70.30;;;;;;4982435;28;20038;-75
2022/09/08 04:32:46;;;;;;;2.40;1.42;;;19.70;70.40;;;;;;4952816;28;20044;-75
2022/09/08 04:35:12;;;;;;;1.45;1.23;;;19.70;70.40;;;;;;4997016;28;20093;-76
2022/09/08 04:37:38;;;;;;;1.85;1.20;;;19.70;70.50;;;;;;4961960;28;20073;-76
2022/09/08 04:40:06;;;;;;;1.92;1.17;;;19.70;70.70;;;;;;4985683;28;20038;-75
2022/09/08 04:42:33;;;;;;;5.40;1.38;;;19.60;70.50;;;;;;4999883;28;20038;-76
2022/09/08 04:44:59;;;;;;;1.65;1.27;;;19.60;70.70;;;;;;4989965;28;20049;-75
2022/09/08 04:47:25;;;;;;;2.13;1.48;;;19.60;70.70;;;;;;4981241;28;20044;-75
2022/09/08 04:49:52;;;;;;;2.08;1.38;;;19.60;70.70;;;;;;4965247;28;20562;-75
2022/09/08 04:52:18;;;;;;;3.25;1.58;;;19.60;70.80;;;;;;4950396;28;20042;-75
2022/09/08 04:54:43;;;;;;;2.65;1.45;;;19.50;70.90;;;;;;4949701;28;20034;-75
2022/09/08 04:57:09;;;;;;;1.95;1.50;;;19.50;70.90;;;;;;4948226;28;20080;-73
2022/09/08 04:59:35;;;;;;;3.05;1.55;;;19.50;71.00;;;;;;4953036;28;20038;-74
2022/09/08 05:02:00;;;;;;;4.22;1.65;;;19.50;71.20;;;;;;4943064;28;20049;-74
2022/09/08 05:04:26;;;;;;;2.85;1.83;;;19.50;71.20;;;;;;4979247;28;20124;-73
2022/09/08 05:06:51;;;;;;;3.05;1.67;;;19.50;71.20;;;;;;4950354;28;20104;-78
2022/09/08 05:09:17;;;;;;;4.15;1.63;;;19.40;71.20;;;;;;4983143;28;20485;-74
2022/09/08 05:11:43;;;;;;;3.95;1.70;;;19.50;71.30;;;;;;4962740;28;20037;-76
2022/09/08 05:14:09;;;;;;;2.13;1.75;;;19.40;71.30;;;;;;4944283;28;20038;-75
2022/09/08 05:16:35;;;;;;;2.47;1.98;;;19.50;71.40;;;;;;4961747;28;20092;-73
2022/09/08 05:19:02;;;;;;;2.70;1.95;;;19.40;71.40;;;;;;4985517;28;20038;-75
2022/09/08 05:21:28;;;;;;;1.83;1.70;;;19.40;71.40;;;;;;4963585;28;20127;-74
2022/09/08 05:23:54;;;;;;;2.20;1.45;;;19.40;71.50;;;;;;4953058;28;20030;-74
2022/09/08 05:26:20;;;;;;;2.22;1.60;;;19.40;71.80;;;;;;4955402;28;20486;-73
2022/09/08 05:28:46;;;;;;;2.17;1.40;;;19.40;72.30;;;;;;4949953;28;20034;-73
2022/09/08 05:31:13;;;;;;;2.05;1.50;;;19.30;71.60;;;;;;4965336;28;20108;-74
2022/09/08 05:33:39;;;;;;;4.95;1.75;;;19.40;71.80;;;;;;4950804;28;20050;-74
2022/09/08 05:36:24;;;;;;;2.35;1.60;;;19.40;71.80;;;;;;4952146;28;20038;-74
2022/09/08 05:38:50;;;;;;;3.05;1.67;;;19.40;72.40;;;;;;4945202;28;20049;-73
2022/09/08 05:41:16;;;;;;;1.92;1.30;;;19.40;72.00;;;;;;4916197;28;20096;-74
2022/09/08 05:43:42;;;;;;;7.13;1.63;;;19.30;72.60;;;;;;4945599;28;20042;-73
2022/09/08 05:46:08;;;;;;;2.33;1.30;;;19.30;71.90;;;;;;4929303;28;20038;-72
2022/09/08 05:48:34;;;;;;;2.25;1.60;;;19.30;72.10;;;;;;4943541;28;20585;-73
2022/09/08 05:50:59;;;;;;;5.57;1.45;;;19.30;72.20;;;;;;4959789;28;20050;-73
2022/09/08 05:53:25;;;;;;;2.47;1.50;;;19.30;72.50;;;;;;4965247;28;20042;-74
2022/09/08 05:55:58;;;;;;;2.05;1.83;;;19.30;72.50;;;;;;4947718;28;20506;-74
2022/09/08 05:58:24;;;;;;;1.80;1.65;;;19.20;73.00;;;;;;4957302;28;20046;-72
2022/09/08 06:00:57;;;;;;;2.95;1.70;;;19.20;72.80;;;;;;4948007;28;20042;-73
2022/09/08 06:03:22;;;;;;;2.47;1.90;;;19.20;73.20;;;;;;4963254;28;20045;-73
2022/09/08 06:05:48;;;;;;;2.13;1.92;;;19.20;72.90;;;;;;4962280;28;20038;-72
2022/09/08 06:08:13;;;;;;;2.17;1.63;;;19.20;73.10;;;;;;4948147;28;20038;-74
2022/09/08 06:10:39;;;;;;;1.75;1.52;;;19.10;73.10;;;;;;4960829;28;20046;-72
2022/09/08 06:13:05;;;;;;;3.92;1.58;;;19.10;73.20;;;;;;4961672;28;20035;-73
2022/09/08 06:15:30;;;;;;;4.22;1.85;;;19.10;73.20;;;;;;4960099;28;20046;-73
2022/09/08 06:17:58;;;;;;;2.10;1.48;;;19.10;73.20;;;;;;4979187;28;20437;-73
2022/09/08 06:20:24;;;;;;;2.75;1.92;;;19.10;73.30;;;;;;4963659;28;20048;-73
2022/09/08 06:22:49;;;;;;;4.13;1.80;;;19.10;73.30;;;;;;4927062;28;20395;-74
2022/09/08 06:25:15;;;;;;;3.53;1.92;;;19.10;73.60;;;;;;4946957;28;20038;-73
2022/09/08 06:27:52;;;;;;;2.58;1.42;;;19.10;73.60;;;;;;4962792;28;20037;-73
2022/09/08 06:30:18;;;;;;;2.42;1.40;;;19.10;73.60;;;;;;4982299;28;20179;-73
2022/09/08 06:32:48;;;;;;;2.88;1.50;;;19.10;73.50;;;;;;4981134;28;20044;-73
2022/09/08 06:35:17;;;;;;;2.83;1.45;;;19.10;73.70;;;;;;4981064;28;20158;-74
2022/09/08 06:38:03;;;;;;;3.97;1.80;;;19.10;73.90;;;;;;4981386;28;20108;-72
2022/09/08 06:40:39;;;;;;;3.05;1.40;;;19.10;74.20;;;;;;4964871;28;20041;-72
2022/09/08 06:43:11;;;;;;;3.50;1.45;;;19.10;74.00;;;;;;4957049;28;20113;-72
2022/09/08 06:45:44;;;;;;;2.05;1.40;;;19.10;73.70;;;;;;4964173;28;20144;-73
2022/09/08 06:48:24;;;;;;;3.17;1.70;;;19.10;73.70;;;;;;4979335;28;20060;-72
2022/09/08 06:51:09;;;;;;;1.50;1.10;;;19.10;74.10;;;;;;4947456;28;20042;-73
2022/09/08 06:53:38;;;;;;;2.03;1.30;;;19.10;74.20;;;;;;4951574;28;20438;-72
2022/09/08 06:56:23;;;;;;;2.08;1.20;;;19.10;74.00;;;;;;4960526;28;20062;-72
2022/09/08 06:58:49;;;;;;;1.80;1.30;;;19.10;74.40;;;;;;4966297;28;20042;-72
2022/09/08 07:01:22;;;;;;;1.88;1.20;;;19.10;74.10;;;;;;4966195;28;20045;-74
2022/09/08 07:04:14;;;;;;;2.42;1.45;;;19.00;74.30;;;;;;4964191;28;20041;-73
2022/09/08 07:07:01;;;;;;;2.67;1.17;;;19.00;74.40;;;;;;4977332;28;20045;-73
2022/09/08 07:09:29;;;;;;;3.40;1.15;;;19.10;74.60;;;;;;4978428;28;20048;-73
2022/09/08 07:12:16;;;;;;;2.15;1.10;;;19.10;74.10;;;;;;4979398;28;20565;-74
2022/09/08 07:15:05;;;;;;;2.28;1.00;;;19.10;74.20;;;;;;4991399;28;20112;-73
2022/09/08 07:17:43;;;;;;;4.05;1.30;;;19.10;74.70;;;;;;4960863;28;20035;-73
2022/09/08 07:20:10;;;;;;;1.65;1.10;;;19.10;74.50;;;;;;4946649;28;20515;-73
2022/09/08 07:22:41;;;;;;;2.20;1.10;;;19.00;74.20;;;;;;4958201;28;20101;-73
2022/09/08 07:25:15;;;;;;;;;;;19.10;74.50;;;;;;4973736;28;20719;-72
2022/09/08 07:27:41;;;;;;;3.92;1.20;;;19.10;74.20;;;;;;4999290;28;19917;-74
2022/09/08 07:30:15;;;;;;;1.90;1.17;;;19.00;74.00;;;;;;4981422;28;20053;-73
2022/09/08 07:32:41;;;;;;;2.30;1.27;;;19.10;74.40;;;;;;4962085;28;20491;-72
2022/09/08 07:35:21;;;;;;;3.55;0.80;;;19.00;74.30;;;;;;4962842;28;20083;-73
2022/09/08 07:37:51;;;;;;;0.80;0.80;;;19.10;74.60;;;;;;4973586;28;20072;-72
2022/09/08 07:40:19;;;;;;;1.00;0.80;;;19.00;74.80;;;;;;4976537;28;20046;-73
2022/09/08 07:43:09;;;;;;;0.95;0.75;;;19.00;74.60;;;;;;4979598;28;20045;-73
2022/09/08 07:45:56;;;;;;;2.53;1.10;;;19.00;75.40;;;;;;4963884;28;20046;-71
2022/09/08 07:48:33;;;;;;;2.15;1.08;;;19.00;74.90;;;;;;4990066;28;20057;-73
2022/09/08 07:51:14;;;;;;;1.63;0.80;;;19.00;75.10;;;;;;4976848;28;20046;-73
2022/09/08 07:54:10;;;;;;;2.78;0.90;;;19.00;75.40;;;;;;4979318;28;20591;-73
2022/09/08 07:56:41;;;;;;;2.95;1.10;;;18.90;75.70;;;;;;4977087;28;20049;-74
2022/09/08 07:59:13;;;;;;;0.95;0.95;;;19.00;75.30;;;;;;4955764;28;20045;-73
2022/09/08 08:01:41;;;;;;;;;;;18.90;75.60;;;;;;4971902;28;20041;-72
2022/09/08 08:04:12;;;;;;;2.35;1.10;;;19.00;75.40;;;;;;4950979;28;19920;-73
2022/09/08 08:06:38;;;;;;;1.48;1.00;;;19.00;75.30;;;;;;4974244;28;20050;-72
2022/09/08 08:09:41;;;;;;;2.38;0.93;;;18.90;75.40;;;;;;4977098;28;20105;-73
2022/09/08 08:12:17;;;;;;;2.70;1.13;;;19.00;76.10;;;;;;4977205;28;20042;-74
2022/09/08 08:14:58;;;;;;;1.85;0.90;;;19.00;75.70;;;;;;4921803;28;20034;-74
2022/09/08 08:17:47;;;;;;;1.95;0.85;;;19.00;76.20;;;;;;4949540;28;20037;-74
2022/09/08 08:20:25;;;;;;;2.80;1.17;;;19.00;76.00;;;;;;4960977;28;20041;-73
2022/09/08 08:23:17;;;;;;;1.30;0.70;;;19.00;75.70;;;;;;4982951;28;20666;-74
2022/09/08 08:25:53;;;;;;;1.80;0.80;;;19.00;76.00;;;;;;4959181;28;20034;-73
2022/09/08 08:28:19;;;;;;;2.13;1.00;;;19.00;75.60;;;;;;4996618;28;20052;-74
2022/09/08 08:31:06;;;;;;;0.75;0.75;;;19.00;75.70;;;;;;4978601;28;20041;-74
2022/09/08 08:33:36;;;;;;;1.48;0.90;;;19.10;76.00;;;;;;4999483;28;20069;-73
2022/09/08 08:36:07;;;;;;;1.17;0.60;;;19.10;76.00;;;;;;4980939;28;20581;-74
2022/09/08 08:38:38;;;;;;;3.05;1.15;;;19.10;76.20;;;;;;4979126;28;20033;-74
2022/09/08 08:41:26;;;;;;;0.40;0.40;;;19.20;76.30;;;;;;4967184;28;20034;-74
2022/09/08 08:44:04;;;;;;;1.00;0.70;;;19.20;76.30;;;;;;4960051;28;20034;-75
2022/09/08 08:47:01;;;;;;;2.88;0.75;;;19.20;76.30;;;;;;4980442;28;20038;-75
2022/09/08 08:49:39;;;;;;;1.90;0.65;;;19.20;76.70;;;;;;4996396;28;20057;-73
2022/09/08 08:52:05;;;;;;;1.10;0.85;;;19.30;76.20;;;;;;4984089;28;20103;-74
2022/09/08 08:54:55;;;;;;;0.65;0.60;;;19.30;76.10;;;;;;4999557;28;20510;-75
2022/09/08 08:57:32;;;;;;;2.88;0.60;;;19.40;76.40;;;;;;4986433;28;20042;-75
2022/09/08 09:00:14;;;;;;;1.33;0.60;;;19.40;76.30;;;;;;4965504;28;20038;-75
2022/09/08 09:03:01;;;;;;;2.72;0.77;;;19.40;76.60;;;;;;4969886;28;20037;-74
2022/09/08 09:05:42;;;;;;;0.75;0.60;;;19.50;76.50;;;;;;4964050;28;20741;-75
2022/09/08 09:08:24;;;;;;;1.15;0.45;;;19.60;76.30;;;;;;4977309;28;20026;-76
2022/09/08 09:11:18;;;;;;;3.08;1.08;;;19.60;76.20;;;;;;4982513;28;20046;-75
2022/09/08 09:13:49;;;;;;;0.88;0.55;;;19.70;76.00;;;;;;4962724;28;20087;-75
2022/09/08 09:16:43;;;;;;;2.92;0.55;;;19.80;75.80;;;;;;4983922;28;20145;-74
2022/09/08 09:19:16;;;;;;;0.73;0.50;;;19.90;75.80;;;;;;4974137;28;20121;-75
2022/09/08 09:22:12;;;;;;;0.60;0.60;;;20.00;75.30;;;;;;4977258;28;20038;-74
2022/09/08 09:24:59;;;;;;;0.55;0.52;;;20.00;75.60;;;;;;4959943;28;20049;-75
2022/09/08 09:27:44;;;;;;;0.70;0.68;;;20.10;75.00;;;;;;4987143;28;20137;-76
2022/09/08 09:30:18;;;;;;;2.42;0.55;;;20.20;75.30;;;;;;4974558;28;20046;-75
2022/09/08 09:32:58;;;;;;;1.05;0.52;;;20.30;74.90;;;;;;4957164;28;20034;-74
2022/09/08 09:35:44;;;;;;;0.88;0.75;;;20.40;74.70;;;;;;4984309;28;20054;-75
2022/09/08 09:38:24;;;;;;;0.50;0.50;;;20.50;74.60;;;;;;4976555;28;20137;-74
2022/09/08 09:41:12;;;;;;;2.08;0.50;;;20.70;74.60;;;;;;4968071;28;20066;-75
2022/09/08 09:44:14;;;;;;;0.63;0.40;;;20.80;73.80;;;;;;4975594;28;20105;-75
2022/09/08 09:46:40;;;;;;;1.48;0.70;;;20.90;73.20;;;;;;4991331;28;20706;-75
2022/09/08 09:49:06;;;;;;;0.55;0.40;;;20.90;72.90;;;;;;4979605;28;20030;-75
2022/09/08 09:52:06;;;;;;;0.50;0.50;;;21.00;72.80;;;;;;4980748;28;20081;-76
2022/09/08 09:54:38;;;;;;;1.42;0.50;;;21.20;72.70;;;;;;4955255;28;20034;-75
2022/09/08 09:57:32;;;;;;;0.52;0.50;;;21.40;72.30;;;;;;4996339;28;20044;-76
2022/09/08 10:00:19;;;;;;;0.93;0.50;;;21.60;71.60;;;;;;4993004;28;22287;-75
2022/09/08 10:03:03;;;;;;;0.43;0.43;;;21.80;71.10;;;;;;4995218;28;20049;-76
2022/09/08 10:05:51;;;;;;;0.40;0.40;;;22.00;70.70;;;;;;4998854;28;20367;-76
2022/09/08 10:08:20;;;;;;;0.60;0.47;;;22.20;69.60;;;;;;4991350;28;20042;-76
2022/09/08 10:10:57;;;;;;;0.65;0.30;;;22.30;69.40;;;;;;5009915;28;20038;-75
2022/09/08 10:13:30;;;;;;;0.20;0.20;;;22.40;68.80;;;;;;5020229;28;20046;-75
2022/09/08 10:16:32;;;;;;;1.08;0.50;;;22.50;69.20;;;;;;5000217;28;20118;-76
2022/09/08 10:19:22;;;;;;;0.40;0.30;;;22.50;67.70;;;;;;5000684;28;20045;-76
2022/09/08 10:22:02;;;;;;;0.28;0.22;;;22.70;67.80;;;;;;4990557;28;20049;-75
2022/09/08 10:24:46;;;;;;;0.30;0.30;;;22.90;67.50;;;;;;5016192;28;20044;-76
2022/09/08 10:27:40;;;;;;;0.32;0.32;;;23.10;66.80;;;;;;5011326;28;20042;-74
2022/09/08 10:30:29;;;;;;;0.47;0.20;;;23.20;65.90;;;;;;5017159;28;20725;-76
2022/09/08 10:33:23;;;;;;;0.52;0.40;;;23.30;65.10;;;;;;4981683;28;20053;-75
2022/09/08 10:35:52;;;;;;;0.25;0.20;;;23.40;64.90;;;;;;4996831;28;20044;-75
2022/09/08 10:38:49;;;;;;;0.55;0.40;;;23.60;64.90;;;;;;4995038;28;20061;-76
2022/09/08 10:41:33;;;;;;;0.93;0.52;;;23.70;63.40;;;;;;4983856;28;20049;-75
2022/09/08 10:44:13;;;;;;;0.32;0.22;;;23.80;62.80;;;;;;4974757;28;20551;-77
2022/09/08 10:47:00;;;;;;;0.40;0.40;;;23.90;63.00;;;;;;4977163;28;20035;-75
2022/09/08 10:49:57;;;;;;;1.45;0.50;;;23.90;62.60;;;;;;4976796;28;20051;-77
2022/09/08 10:52:33;;;;;;;2.70;0.50;;;24.00;62.00;;;;;;4978076;28;20042;-76
2022/09/08 10:55:35;;;;;;;1.63;0.47;;;24.00;61.90;;;;;;4960508;28;21635;-75
2022/09/08 10:58:18;;;;;;;0.55;0.50;;;24.00;61.50;;;;;;4988541;28;20141;-75
2022/09/08 11:01:04;;;;;;;1.27;0.30;;;24.20;61.00;;;;;;4961985;28;20116;-76
2022/09/08 11:03:57;;;;;;;0.40;0.30;;;24.30;61.10;;;;;;4968780;28;20034;-76
2022/09/08 11:06:27;;;;;;;0.65;0.40;;;24.40;59.60;;;;;;4981988;28;20034;-75
2022/09/08 11:09:02;;;;;;;0.60;0.40;;;24.40;60.00;;;;;;4976193;28;20054;-77
2022/09/08 11:11:58;;;;;;;0.73;0.43;;;24.40;59.50;;;;;;4993671;28;20065;-76
2022/09/08 11:14:33;;;;;;;1.38;0.40;;;24.40;59.10;;;;;;4996369;28;20037;-75
2022/09/08 11:17:24;;;;;;;1.33;0.40;;;24.50;59.40;;;;;;4982949;28;20053;-76
2022/09/08 11:20:10;;;;;;;0.75;0.38;;;24.70;58.70;;;;;;4979738;28;20116;-75
2022/09/08 11:22:39;;;;;;;1.02;0.50;;;24.90;58.10;;;;;;4999805;28;20022;-76
2022/09/08 11:25:34;;;;;;;0.65;0.40;;;25.00;58.30;;;;;;5000065;28;20103;-76
2022/09/08 11:28:21;;;;;;;2.72;0.60;;;25.20;57.50;;;;;;4999524;28;20053;-76
2022/09/08 11:31:05;;;;;;;2.08;0.40;;;25.40;57.10;;;;;;4991613;28;20046;-76
2022/09/08 11:34:05;;;;;;;0.93;0.50;;;25.50;56.80;;;;;;4997523;28;20045;-76
2022/09/08 11:37:01;;;;;;;2.00;0.43;;;25.50;56.00;;;;;;4999088;28;20038;-75
2022/09/08 11:39:55;;;;;;;0.50;0.50;;;25.40;56.00;;;;;;4986779;28;20065;-76
2022/09/08 11:42:42;;;;;;;0.93;0.50;;;25.40;56.20;;;;;;4992022;28;20050;-75
2022/09/08 11:45:32;;;;;;;0.82;0.45;;;25.40;56.30;;;;;;4989057;28;20042;-75
2022/09/08 11:48:32;;;;;;;0.93;0.45;;;25.30;55.80;;;;;;4991340;28;20070;-76
2022/09/08 11:51:19;;;;;;;0.70;0.35;;;25.40;55.50;;;;;;4989243;28;20047;-75
2022/09/08 11:53:52;;;;;;;0.68;0.38;;;25.60;55.50;;;;;;4978570;28;20057;-75
2022/09/08 11:56:43;;;;;;;1.48;0.40;;;25.60;55.20;;;;;;4990449;28;20042;-75
2022/09/08 11:59:23;;;;;;;0.30;0.30;;;25.80;54.60;;;;;;4957996;28;20034;-75
2022/09/08 12:01:58;;;;;;;1.40;0.38;;;26.10;54.20;;;;;;4992462;28;20649;-75
2022/09/08 12:04:49;;;;;;;0.73;0.40;;;26.10;54.20;;;;;;4993424;28;20042;-75
2022/09/08 12:07:34;;;;;;;0.32;0.20;;;26.20;53.60;;;;;;4985025;28;20042;-75
2022/09/08 12:10:16;;;;;;;2.13;0.40;;;26.30;53.90;;;;;;5001622;28;20129;-75
2022/09/08 12:13:00;;;;;;;1.20;0.20;;;26.40;53.20;;;;;;4982414;28;20166;-75
2022/09/08 12:15:48;;;;;;;0.43;0.20;;;26.50;52.30;;;;;;4974770;28;20039;-75
2022/09/08 12:18:37;;;;;;;1.33;0.30;;;26.60;51.90;;;;;;4989760;28;20125;-76
2022/09/08 12:21:14;;;;;;;0.45;0.30;;;26.70;51.50;;;;;;4969845;28;20060;-75
2022/09/08 12:23:45;;;;;;;0.20;0.17;;;26.70;51.30;;;;;;4972255;28;20042;-76
2022/09/08 12:26:23;;;;;;;2.00;0.50;;;26.80;51.70;;;;;;4987378;28;20026;-75
2022/09/08 12:29:04;;;;;;;0.70;0.38;;;26.90;50.70;;;;;;4986498;28;20034;-76
2022/09/08 12:32:04;;;;;;;1.35;0.40;;;26.90;50.50;;;;;;4991653;28;20053;-76
2022/09/08 12:35:04;;;;;;;1.63;0.50;;;27.00;50.00;;;;;;4975951;28;20057;-75
2022/09/08 12:37:38;;;;;;;0.63;0.30;;;27.10;49.90;;;;;;4976426;28;20069;-74
2022/09/08 12:40:30;;;;;;;1.70;0.60;;;27.20;50.00;;;;;;4989192;28;20035;-75
2022/09/08 12:43:18;;;;;;;1.00;0.40;;;27.20;49.30;;;;;;4987805;28;20030;-75
2022/09/08 12:46:15;;;;;;;0.95;0.40;;;27.30;49.00;;;;;;4971796;28;20106;-75
2022/09/08 12:49:00;;;;;;;0.30;0.30;;;27.40;48.70;;;;;;4967195;28;20089;-74
2022/09/08 12:51:35;;;;;;;1.10;0.40;;;27.60;49.10;;;;;;4968640;28;20042;-75
2022/09/08 12:54:18;;;;;;;1.55;0.30;;;27.70;48.80;;;;;;4987304;28;20235;-77
2022/09/08 12:56:46;;;;;;;0.82;0.28;;;27.70;47.70;;;;;;4987978;28;20117;-75
2022/09/08 12:59:44;;;;;;;1.20;0.40;;;27.60;48.20;;;;;;4988999;28;20113;-75
2022/09/08 13:02:41;;;;;;;1.10;0.32;;;27.60;47.40;;;;;;4992505;28;20061;-75
2022/09/08 13:05:31;;;;;;;1.15;0.30;;;27.50;47.40;;;;;;4989765;28;20045;-75
2022/09/08 13:08:23;;;;;;;0.40;0.25;;;27.30;47.50;;;;;;4986271;28;20045;-76
2022/09/08 13:10:51;;;;;;;0.40;0.40;;;27.20;47.50;;;;;;4993887;28;20046;-75
2022/09/08 13:13:31;;;;;;;1.13;0.50;;;27.10;48.60;;;;;;4979526;28;20038;-77
2022/09/08 13:16:10;;;;;;;1.20;0.40;;;27.10;47.60;;;;;;4981055;28;20049;-75
2022/09/08 13:18:54;;;;;;;0.30;0.20;;;27.20;48.00;;;;;;4997840;28;20530;-75
2022/09/08 13:22:08;;;;;;;0.38;0.30;;;27.40;48.00;;;;;;4994895;28;20030;-74
2022/09/08 13:24:41;;;;;;;0.80;0.40;;;27.50;46.70;;;;;;4926014;28;20039;-76
2022/09/08 13:27:29;;;;;;;0.30;0.30;;;27.70;47.20;;;;;;4975647;28;20038;-75
2022/09/08 13:30:07;;;;;;;0.75;0.30;;;27.80;46.50;;;;;;4968650;28;20174;-75
2022/09/08 13:32:48;;;;;;;2.30;0.30;;;27.90;46.30;;;;;;4970684;28;20045;-75
2022/09/08 13:35:41;;;;;;;0.52;0.20;;;28.00;45.90;;;;;;4966741;28;20037;-76